Strawn, Texas
Current Conditions -  °F | °C
As of 2:55 PM on Saturday 25 Oct 2014 (Local Time) from KBKD Reporting Station
Haze Haze  
Wind Chill: 91°   Ceiling: Unl
Heat Index: 91°   Visibility: 5mi
Dew Point: 51°   Wind: 8mph
Humidity: 25%   Direction: 220°SW
Pressure: 30.08"   Gusts: NA
Location:  32.55°N, 98.5°W
Report Text: KBKD 251955Z AUTO 22007KT 190V270 5SM HZ CLR 33/10 A3008 RMK AO2 T03280104
Loading
Personal Weather Stations






























Interactive Weather Map
Tropical Storm Tracking
New forecast layout! Learn more

10-Day Weather Forecast

Advertisements
Track Severe Weather on mobile